sensor_id;sensor_type;location;lat;lon;timestamp;pressure;altitude;pressure_sealevel;temperature;humidity
13348;BME280;6743;49.934;9.138;2023-02-10T00:01:40;102414.16;;;-2.58;100.00
13348;BME280;6743;49.934;9.138;2023-02-10T00:04:06;102415.06;;;-2.60;100.00
13348;BME280;6743;49.934;9.138;2023-02-10T00:06:32;102417.72;;;-2.63;100.00
13348;BME280;6743;49.934;9.138;2023-02-10T00:09:00;102420.31;;;-2.63;100.00
13348;BME280;6743;49.934;9.138;2023-02-10T00:11:27;102423.81;;;-2.66;100.00
13348;BME280;6743;49.934;9.138;2023-02-10T00:14:13;102420.47;;;-2.72;100.00
13348;BME280;6743;49.934;9.138;2023-02-10T00:16:39;102417.97;;;-2.77;100.00
13348;BME280;6743;49.934;9.138;2023-02-10T00:19:06;102435.31;;;-2.79;100.00
13348;BME280;6743;49.934;9.138;2023-02-10T00:21:32;102437.97;;;-2.82;100.00
13348;BME280;6743;49.934;9.138;2023-02-10T00:23:58;102438.00;;;-2.84;100.00
13348;BME280;6743;49.934;9.138;2023-02-10T00:26:24;102442.28;;;-2.83;100.00
13348;BME280;6743;49.934;9.138;2023-02-10T00:28:52;102446.69;;;-2.85;100.00
13348;BME280;6743;49.934;9.138;2023-02-10T00:31:18;102449.31;;;-2.88;100.00
13348;BME280;6743;49.934;9.138;2023-02-10T00:33:44;102450.25;;;-2.92;100.00
13348;BME280;6743;49.934;9.138;2023-02-10T00:36:13;102446.84;;;-2.97;100.00
13348;BME280;6743;49.934;9.138;2023-02-10T00:38:40;102437.56;;;-3.10;100.00
13348;BME280;6743;49.934;9.138;2023-02-10T00:41:08;102452.22;;;-3.06;100.00
13348;BME280;6743;49.934;9.138;2023-02-10T00:43:34;102454.00;;;-3.09;100.00
13348;BME280;6743;49.934;9.138;2023-02-10T00:46:02;102461.78;;;-3.09;100.00
13348;BME280;6743;49.934;9.138;2023-02-10T00:48:28;102466.16;;;-3.11;100.00
13348;BME280;6743;49.934;9.138;2023-02-10T00:50:54;102472.28;;;-3.17;100.00
13348;BME280;6743;49.934;9.138;2023-02-10T00:53:20;102473.22;;;-3.20;100.00
13348;BME280;6743;49.934;9.138;2023-02-10T00:55:46;102475.91;;;-3.27;100.00
13348;BME280;6743;49.934;9.138;2023-02-10T00:58:12;102475.06;;;-3.29;100.00
13348;BME280;6743;49.934;9.138;2023-02-10T01:00:39;102466.44;;;-3.31;100.00
13348;BME280;6743;49.934;9.138;2023-02-10T01:03:06;102463.03;;;-3.33;100.00
13348;BME280;6743;49.934;9.138;2023-02-10T01:05:32;102463.06;;;-3.35;100.00
13348;BME280;6743;49.934;9.138;2023-02-10T01:07:58;102471.72;;;-3.37;100.00
13348;BME280;6743;49.934;9.138;2023-02-10T01:10:24;102479.50;;;-3.37;100.00
13348;BME280;6743;49.934;9.138;2023-02-10T01:12:50;102477.84;;;-3.41;100.00
13348;BME280;6743;49.934;9.138;2023-02-10T01:15:16;102478.75;;;-3.44;100.00
13348;BME280;6743;49.934;9.138;2023-02-10T01:17:43;102486.53;;;-3.45;100.00
13348;BME280;6743;49.934;9.138;2023-02-10T01:20:10;102486.63;;;-3.50;100.00
13348;BME280;6743;49.934;9.138;2023-02-10T01:22:36;102485.75;;;-3.50;100.00
13348;BME280;6743;49.934;9.138;2023-02-10T01:25:02;102490.09;;;-3.51;100.00
13348;BME280;6743;49.934;9.138;2023-02-10T01:27:29;102475.47;;;-3.58;100.00
13348;BME280;6743;49.934;9.138;2023-02-10T01:29:55;102490.94;;;-3.50;100.00
13348;BME280;6743;49.934;9.138;2023-02-10T01:32:21;102493.56;;;-3.52;100.00
13348;BME280;6743;49.934;9.138;2023-02-10T01:34:47;102489.22;;;-3.51;100.00
13348;BME280;6743;49.934;9.138;2023-02-10T01:37:13;102492.69;;;-3.51;100.00
13348;BME280;6743;49.934;9.138;2023-02-10T01:39:39;102484.03;;;-3.51;100.00
13348;BME280;6743;49.934;9.138;2023-02-10T01:42:06;102484.91;;;-3.52;100.00
13348;BME280;6743;49.934;9.138;2023-02-10T01:47:36;102495.28;;;-3.52;100.00
13348;BME280;6743;49.934;9.138;2023-02-10T01:50:03;102493.53;;;-3.50;100.00
13348;BME280;6743;49.934;9.138;2023-02-10T01:52:29;102494.41;;;-3.51;100.00
13348;BME280;6743;49.934;9.138;2023-02-10T01:55:00;102497.84;;;-3.49;100.00
13348;BME280;6743;49.934;9.138;2023-02-10T01:57:28;102499.66;;;-3.53;100.00
13348;BME280;6743;49.934;9.138;2023-02-10T01:59:55;102491.03;;;-3.58;100.00
13348;BME280;6743;49.934;9.138;2023-02-10T02:02:21;102514.44;;;-3.60;100.00
13348;BME280;6743;49.934;9.138;2023-02-10T02:04:49;102494.66;;;-3.70;100.00
13348;BME280;6743;49.934;9.138;2023-02-10T02:07:16;102507.50;;;-3.59;100.00
13348;BME280;6743;49.934;9.138;2023-02-10T02:09:43;102512.66;;;-3.58;100.00
13348;BME280;6743;49.934;9.138;2023-02-10T02:12:16;102512.72;;;-3.61;100.00
13348;BME280;6743;49.934;9.138;2023-02-10T02:14:51;102520.50;;;-3.61;100.00
13348;BME280;6743;49.934;9.138;2023-02-10T02:17:27;102515.31;;;-3.61;100.00
13348;BME280;6743;49.934;9.138;2023-02-10T02:20:18;102510.94;;;-3.59;100.00
13348;BME280;6743;49.934;9.138;2023-02-10T02:23:17;102513.59;;;-3.62;100.00
13348;BME280;6743;49.934;9.138;2023-02-10T02:26:15;102521.41;;;-3.65;100.00
13348;BME280;6743;49.934;9.138;2023-02-10T02:29:00;102523.12;;;-3.65;100.00
13348;BME280;6743;49.934;9.138;2023-02-10T02:31:52;102524.06;;;-3.68;100.00
13348;BME280;6743;49.934;9.138;2023-02-10T02:34:38;102528.41;;;-3.71;100.00
13348;BME280;6743;49.934;9.138;2023-02-10T02:37:10;102526.66;;;-3.71;100.00
13348;BME280;6743;49.934;9.138;2023-02-10T02:39:37;102532.72;;;-3.72;100.00
13348;BME280;6743;49.934;9.138;2023-02-10T02:42:18;102525.78;;;-3.68;100.00
13348;BME280;6743;49.934;9.138;2023-02-10T02:44:47;102542.16;;;-3.66;100.00
13348;BME280;6743;49.934;9.138;2023-02-10T02:47:22;102538.69;;;-3.62;100.00
13348;BME280;6743;49.934;9.138;2023-02-10T02:49:59;102538.69;;;-3.64;100.00
13348;BME280;6743;49.934;9.138;2023-02-10T02:52:31;102544.75;;;-3.65;100.00
13348;BME280;6743;49.934;9.138;2023-02-10T02:55:07;102536.97;;;-3.63;100.00
13348;BME280;6743;49.934;9.138;2023-02-10T02:57:44;102543.03;;;-3.66;100.00
13348;BME280;6743;49.934;9.138;2023-02-10T03:00:17;102513.78;;;-3.75;100.00
13348;BME280;6743;49.934;9.138;2023-02-10T03:02:45;102547.34;;;-3.65;100.00
13348;BME280;6743;49.934;9.138;2023-02-10T03:05:17;102538.75;;;-3.68;100.00
13348;BME280;6743;49.934;9.138;2023-02-10T03:07:44;102543.97;;;-3.70;100.00
13348;BME280;6743;49.934;9.138;2023-02-10T03:10:10;102533.59;;;-3.71;100.00
13348;BME280;6743;49.934;9.138;2023-02-10T03:12:36;102532.72;;;-3.72;100.00
13348;BME280;6743;49.934;9.138;2023-02-10T03:15:02;102535.34;;;-3.73;100.00
13348;BME280;6743;49.934;9.138;2023-02-10T03:17:28;102528.47;;;-3.76;100.00
13348;BME280;6743;49.934;9.138;2023-02-10T03:19:55;102528.47;;;-3.76;100.00
13348;BME280;6743;49.934;9.138;2023-02-10T03:22:21;102527.63;;;-3.79;100.00
13348;BME280;6743;49.934;9.138;2023-02-10T03:24:47;102528.53;;;-3.82;100.00
13348;BME280;6743;49.934;9.138;2023-02-10T03:27:13;102523.34;;;-3.80;100.00
13348;BME280;6743;49.934;9.138;2023-02-10T03:29:39;102510.50;;;-3.94;100.00
13348;BME280;6743;49.934;9.138;2023-02-10T03:32:05;102530.28;;;-3.84;100.00
13348;BME280;6743;49.934;9.138;2023-02-10T03:34:52;102527.72;;;-3.85;100.00
13348;BME280;6743;49.934;9.138;2023-02-10T03:37:18;102530.28;;;-3.82;100.00
13348;BME280;6743;49.934;9.138;2023-02-10T03:39:44;102531.06;;;-3.76;100.00
13348;BME280;6743;49.934;9.138;2023-02-10T03:42:12;102532.72;;;-3.72;100.00
13348;BME280;6743;49.934;9.138;2023-02-10T03:44:38;102526.66;;;-3.69;100.00
13348;BME280;6743;49.934;9.138;2023-02-10T03:47:04;102529.19;;;-3.66;100.00
13348;BME280;6743;49.934;9.138;2023-02-10T03:49:30;102530.91;;;-3.64;100.00
13348;BME280;6743;49.934;9.138;2023-02-10T03:51:56;102533.50;;;-3.62;100.00
13348;BME280;6743;49.934;9.138;2023-02-10T03:54:22;102536.09;;;-3.62;100.00
13348;BME280;6743;49.934;9.138;2023-02-10T03:56:48;102546.44;;;-3.61;100.00
13348;BME280;6743;49.934;9.138;2023-02-10T03:59:14;102532.56;;;-3.58;100.00
13348;BME280;6743;49.934;9.138;2023-02-10T04:01:40;102545.50;;;-3.55;100.00
13348;BME280;6743;49.934;9.138;2023-02-10T04:04:06;102550.72;;;-3.57;100.00
13348;BME280;6743;49.934;9.138;2023-02-10T04:06:32;102553.28;;;-3.55;100.00
13348;BME280;6743;49.934;9.138;2023-02-10T04:08:58;102532.66;;;-3.66;100.00
13348;BME280;6743;49.934;9.138;2023-02-10T04:11:25;102541.19;;;-3.58;100.00
13348;BME280;6743;49.934;9.138;2023-02-10T04:13:51;102544.59;;;-3.52;100.00
13348;BME280;6743;49.934;9.138;2023-02-10T04:16:17;102546.31;;;-3.51;100.00
13348;BME280;6743;49.934;9.138;2023-02-10T04:18:44;102552.34;;;-3.51;100.00
13348;BME280;6743;49.934;9.138;2023-02-10T04:21:11;102550.69;;;-3.55;100.00
13348;BME280;6743;49.934;9.138;2023-02-10T04:23:37;102561.00;;;-3.50;100.00
13348;BME280;6743;49.934;9.138;2023-02-10T04:26:04;102563.59;;;-3.49;100.00
13348;BME280;6743;49.934;9.138;2023-02-10T04:28:31;102563.56;;;-3.46;100.00
13348;BME280;6743;49.934;9.138;2023-02-10T04:30:59;102563.50;;;-3.41;100.00
13348;BME280;6743;49.934;9.138;2023-02-10T04:33:26;102564.34;;;-3.39;100.00
13348;BME280;6743;49.934;9.138;2023-02-10T04:35:52;102556.50;;;-3.38;100.00
13348;BME280;6743;49.934;9.138;2023-02-10T04:38:19;102572.91;;;-3.34;100.00
13348;BME280;6743;49.934;9.138;2023-02-10T04:40:45;102563.34;;;-3.31;100.00
13348;BME280;6743;49.934;9.138;2023-02-10T04:43:11;102559.84;;;-3.27;100.00
13348;BME280;6743;49.934;9.138;2023-02-10T04:45:38;102558.94;;;-3.24;100.00
13348;BME280;6743;49.934;9.138;2023-02-10T04:48:05;102564.06;;;-3.20;100.00
13348;BME280;6743;49.934;9.138;2023-02-10T04:50:31;102564.00;;;-3.15;100.00
13348;BME280;6743;49.934;9.138;2023-02-10T04:52:57;102566.56;;;-3.12;100.00
13348;BME280;6743;49.934;9.138;2023-02-10T04:55:23;102567.38;;;-3.10;100.00
13348;BME280;6743;49.934;9.138;2023-02-10T04:57:49;102579.47;;;-3.07;100.00
13348;BME280;6743;49.934;9.138;2023-02-10T05:00:15;102569.97;;;-3.08;100.00
13348;BME280;6743;49.934;9.138;2023-02-10T05:02:42;102584.56;;;-3.01;100.00
13348;BME280;6743;49.934;9.138;2023-02-10T05:05:09;102583.69;;;-2.99;100.00
13348;BME280;6743;49.934;9.138;2023-02-10T05:07:36;102587.09;;;-2.97;100.00
13348;BME280;6743;49.934;9.138;2023-02-10T05:10:02;102589.66;;;-2.92;100.00
13348;BME280;6743;49.934;9.138;2023-02-10T05:12:28;102589.63;;;-2.91;100.00
13348;BME280;6743;49.934;9.138;2023-02-10T05:14:54;102593.94;;;-2.90;100.00
13348;BME280;6743;49.934;9.138;2023-02-10T05:17:20;102593.03;;;-2.87;100.00
13348;BME280;6743;49.934;9.138;2023-02-10T05:19:47;102600.81;;;-2.86;100.00
13348;BME280;6743;49.934;9.138;2023-02-10T05:22:13;102609.47;;;-2.85;100.00
13348;BME280;6743;49.934;9.138;2023-02-10T05:24:39;102608.53;;;-2.83;100.00
13348;BME280;6743;49.934;9.138;2023-02-10T05:27:05;102597.28;;;-2.82;100.00
13348;BME280;6743;49.934;9.138;2023-02-10T05:29:31;102610.25;;;-2.82;100.00
13348;BME280;6743;49.934;9.138;2023-02-10T05:31:57;102606.81;;;-2.82;100.00
13348;BME280;6743;49.934;9.138;2023-02-10T05:34:23;102599.87;;;-2.82;100.00
13348;BME280;6743;49.934;9.138;2023-02-10T05:36:50;102596.41;;;-2.82;100.00
13348;BME280;6743;49.934;9.138;2023-02-10T05:39:16;102605.06;;;-2.82;100.00
13348;BME280;6743;49.934;9.138;2023-02-10T05:41:52;102609.41;;;-2.82;100.00
13348;BME280;6743;49.934;9.138;2023-02-10T05:44:18;102607.66;;;-2.80;100.00
13348;BME280;6743;49.934;9.138;2023-02-10T05:46:44;102606.78;;;-2.79;100.00
13348;BME280;6743;49.934;9.138;2023-02-10T05:49:10;102611.09;;;-2.80;100.00
13348;BME280;6743;49.934;9.138;2023-02-10T05:51:36;102616.28;;;-2.78;100.00
13348;BME280;6743;49.934;9.138;2023-02-10T05:54:03;102617.16;;;-2.79;100.00
13348;BME280;6743;49.934;9.138;2023-02-10T05:56:29;102619.75;;;-2.78;100.00
13348;BME280;6743;49.934;9.138;2023-02-10T05:58:56;102630.97;;;-2.75;100.00
13348;BME280;6743;49.934;9.138;2023-02-10T06:01:22;102634.41;;;-2.73;100.00
13348;BME280;6743;49.934;9.138;2023-02-10T06:03:48;102644.75;;;-2.70;100.00
13348;BME280;6743;49.934;9.138;2023-02-10T06:06:14;102641.31;;;-2.71;100.00
13348;BME280;6743;49.934;9.138;2023-02-10T06:08:40;102641.25;;;-2.69;100.00
13348;BME280;6743;49.934;9.138;2023-02-10T06:11:07;102635.19;;;-2.68;100.00
13348;BME280;6743;49.934;9.138;2023-02-10T06:13:33;102638.62;;;-2.66;100.00
13348;BME280;6743;49.934;9.138;2023-02-10T06:15:59;102636.03;;;-2.66;100.00
13348;BME280;6743;49.934;9.138;2023-02-10T06:18:26;102626.50;;;-2.66;100.00
13348;BME280;6743;49.934;9.138;2023-02-10T06:20:52;102629.06;;;-2.64;100.00
13348;BME280;6743;49.934;9.138;2023-02-10T06:23:18;102624.75;;;-2.64;100.00
13348;BME280;6743;49.934;9.138;2023-02-10T06:25:45;102624.75;;;-2.64;100.00
13348;BME280;6743;49.934;9.138;2023-02-10T06:28:13;102629.06;;;-2.63;100.00
13348;BME280;6743;49.934;9.138;2023-02-10T06:30:39;102614.28;;;-2.62;100.00
13348;BME280;6743;49.934;9.138;2023-02-10T06:33:05;102607.44;;;-2.65;100.00
13348;BME280;6743;49.934;9.138;2023-02-10T06:35:34;102616.03;;;-2.61;100.00
13348;BME280;6743;49.934;9.138;2023-02-10T06:38:00;102597.13;;;-2.71;100.00
13348;BME280;6743;49.934;9.138;2023-02-10T06:40:26;102617.72;;;-2.57;100.00
13348;BME280;6743;49.934;9.138;2023-02-10T06:42:52;102614.19;;;-2.55;100.00
13348;BME280;6743;49.934;9.138;2023-02-10T06:45:19;102620.25;;;-2.54;100.00
13348;BME280;6743;49.934;9.138;2023-02-10T06:47:45;102600.50;;;-2.64;100.00
13348;BME280;6743;49.934;9.138;2023-02-10T06:50:11;102626.28;;;-2.51;100.00
13348;BME280;6743;49.934;9.138;2023-02-10T06:52:38;102622.81;;;-2.51;100.00
13348;BME280;6743;49.934;9.138;2023-02-10T06:55:05;102635.78;;;-2.50;100.00
13348;BME280;6743;49.934;9.138;2023-02-10T06:57:32;102637.47;;;-2.49;100.00
13348;BME280;6743;49.934;9.138;2023-02-10T06:59:58;102640.91;;;-2.47;100.00
13348;BME280;6743;49.934;9.138;2023-02-10T07:02:25;102640.91;;;-2.45;100.00
13348;BME280;6743;49.934;9.138;2023-02-10T07:04:51;102641.75;;;-2.45;100.00
13348;BME280;6743;49.934;9.138;2023-02-10T07:07:17;102643.47;;;-2.42;100.00
13348;BME280;6743;49.934;9.138;2023-02-10T07:09:43;102626.97;;;-2.41;100.00
13348;BME280;6743;49.934;9.138;2023-02-10T07:12:09;102631.28;;;-2.40;100.00
13348;BME280;6743;49.934;9.138;2023-02-10T07:14:35;102615.81;;;-2.48;100.00
13348;BME280;6743;49.934;9.138;2023-02-10T07:17:02;102619.13;;;-2.36;100.00
13348;BME280;6743;49.934;9.138;2023-02-10T07:19:29;102625.19;;;-2.37;100.00
13348;BME280;6743;49.934;9.138;2023-02-10T07:21:56;102633.78;;;-2.34;100.00
13348;BME280;6743;49.934;9.138;2023-02-10T07:24:22;102628.53;;;-2.31;100.00
13348;BME280;6743;49.934;9.138;2023-02-10T07:26:48;102636.34;;;-2.31;100.00
13348;BME280;6743;49.934;9.138;2023-02-10T07:29:14;102624.34;;;-2.40;100.00
13348;BME280;6743;49.934;9.138;2023-02-10T07:31:40;102637.19;;;-2.29;100.00
13348;BME280;6743;49.934;9.138;2023-02-10T07:34:06;102644.94;;;-2.27;100.00
13348;BME280;6743;49.934;9.138;2023-02-10T07:36:32;102646.63;;;-2.25;100.00
13348;BME280;6743;49.934;9.138;2023-02-10T07:38:58;102643.16;;;-2.24;100.00
13348;BME280;6743;49.934;9.138;2023-02-10T07:41:24;102637.94;;;-2.22;100.00
13348;BME280;6743;49.934;9.138;2023-02-10T07:43:50;102643.09;;;-2.21;100.00
13348;BME280;6743;49.934;9.138;2023-02-10T07:46:16;102634.50;;;-2.24;100.00
13348;BME280;6743;49.934;9.138;2023-02-10T07:48:42;102644.75;;;-2.15;100.00
13348;BME280;6743;49.934;9.138;2023-02-10T07:51:08;102643.84;;;-2.14;100.00
13348;BME280;6743;49.934;9.138;2023-02-10T07:53:34;102641.22;;;-2.13;100.00
13348;BME280;6743;49.934;9.138;2023-02-10T07:56:03;102634.25;;;-2.09;100.00
13348;BME280;6743;49.934;9.138;2023-02-10T07:58:29;102647.19;;;-2.06;100.00
13348;BME280;6743;49.934;9.138;2023-02-10T08:00:55;102625.72;;;-2.19;100.00
13348;BME280;6743;49.934;9.138;2023-02-10T08:03:21;102655.78;;;-2.01;100.00
13348;BME280;6743;49.934;9.138;2023-02-10T08:05:47;102657.47;;;-1.99;100.00
13348;BME280;6743;49.934;9.138;2023-02-10T08:08:14;102664.37;;;-1.96;100.00
13348;BME280;6743;49.934;9.138;2023-02-10T08:10:41;102657.41;;;-1.94;100.00
13348;BME280;6743;49.934;9.138;2023-02-10T08:13:07;102665.13;;;-1.91;100.00
13348;BME280;6743;49.934;9.138;2023-02-10T08:15:33;102653.03;;;-1.93;100.00
13348;BME280;6743;49.934;9.138;2023-02-10T08:18:00;102653.00;;;-1.90;100.00
13348;BME280;6743;49.934;9.138;2023-02-10T08:20:28;102663.22;;;-1.80;100.00
13348;BME280;6743;49.934;9.138;2023-02-10T08:22:54;102658.84;;;-1.78;100.00
13348;BME280;6743;49.934;9.138;2023-02-10T08:25:21;102648.50;;;-1.82;100.00
13348;BME280;6743;49.934;9.138;2023-02-10T08:27:47;102663.87;;;-1.69;100.00
13348;BME280;6743;49.934;9.138;2023-02-10T08:30:13;102662.06;;;-1.65;100.00
13348;BME280;6743;49.934;9.138;2023-02-10T08:32:39;102668.94;;;-1.61;100.00
13348;BME280;6743;49.934;9.138;2023-02-10T08:35:06;102680.97;;;-1.55;100.00
13348;BME280;6743;49.934;9.138;2023-02-10T08:37:31;102674.81;;;-1.50;100.00
13348;BME280;6743;49.934;9.138;2023-02-10T08:39:58;102681.69;;;-1.46;100.00
13348;BME280;6743;49.934;9.138;2023-02-10T08:42:24;102675.53;;;-1.42;100.00
13348;BME280;6743;49.934;9.138;2023-02-10T08:44:50;102678.91;;;-1.38;100.00
13348;BME280;6743;49.934;9.138;2023-02-10T08:47:16;102683.19;;;-1.34;100.00
13348;BME280;6743;49.934;9.138;2023-02-10T08:49:43;102682.28;;;-1.32;100.00
13348;BME280;6743;49.934;9.138;2023-02-10T08:52:09;102692.62;;;-1.29;100.00
13348;BME280;6743;49.934;9.138;2023-02-10T08:54:38;102690.00;;;-1.27;100.00
13348;BME280;6743;49.934;9.138;2023-02-10T08:57:04;102689.09;;;-1.25;100.00
13348;BME280;6743;49.934;9.138;2023-02-10T08:59:30;102696.84;;;-1.23;100.00
13348;BME280;6743;49.934;9.138;2023-02-10T09:01:57;102700.31;;;-1.23;100.00
13348;BME280;6743;49.934;9.138;2023-02-10T09:04:23;102693.34;;;-1.21;100.00
13348;BME280;6743;49.934;9.138;2023-02-10T09:06:49;102689.84;;;-1.20;100.00
13348;BME280;6743;49.934;9.138;2023-02-10T09:09:17;102696.69;;;-1.15;100.00
13348;BME280;6743;49.934;9.138;2023-02-10T09:11:45;102699.25;;;-1.12;100.00
13348;BME280;6743;49.934;9.138;2023-02-10T09:14:11;102703.53;;;-1.10;100.00
13348;BME280;6743;49.934;9.138;2023-02-10T09:16:38;102707.78;;;-1.04;100.00
13348;BME280;6743;49.934;9.138;2023-02-10T09:19:07;102708.53;;;-0.99;100.00
13348;BME280;6743;49.934;9.138;2023-02-10T09:21:33;102715.38;;;-0.95;100.00
13348;BME280;6743;49.934;9.138;2023-02-10T09:23:59;102698.03;;;-0.96;100.00
13348;BME280;6743;49.934;9.138;2023-02-10T09:26:25;102711.72;;;-0.85;100.00
13348;BME280;6743;49.934;9.138;2023-02-10T09:28:51;102715.06;;;-0.80;100.00
13348;BME280;6743;49.934;9.138;2023-02-10T09:31:17;102719.31;;;-0.76;100.00
13348;BME280;6743;49.934;9.138;2023-02-10T09:33:44;102721.03;;;-0.73;100.00
13348;BME280;6743;49.934;9.138;2023-02-10T09:36:14;102724.38;;;-0.68;100.00
13348;BME280;6743;49.934;9.138;2023-02-10T09:38:44;102730.41;;;-0.65;100.00
13348;BME280;6743;49.934;9.138;2023-02-10T09:41:19;102728.56;;;-0.61;100.00
13348;BME280;6743;49.934;9.138;2023-02-10T09:43:59;102723.31;;;-0.58;100.00
13348;BME280;6743;49.934;9.138;2023-02-10T09:52:39;102730.00;;;-0.47;100.00
13348;BME280;6743;49.934;9.138;2023-02-10T09:55:14;102731.66;;;-0.43;100.00
13348;BME280;6743;49.934;9.138;2023-02-10T09:57:43;102738.50;;;-0.38;100.00
13348;BME280;6743;49.934;9.138;2023-02-10T10:00:21;102732.38;;;-0.36;100.00
13348;BME280;6743;49.934;9.138;2023-02-10T10:02:51;102739.22;;;-0.32;100.00
13348;BME280;6743;49.934;9.138;2023-02-10T10:05:25;102735.69;;;-0.29;100.00
13348;BME280;6743;49.934;9.138;2023-02-10T10:08:01;102741.69;;;-0.26;100.00
13348;BME280;6743;49.934;9.138;2023-02-10T10:10:32;102727.00;;;-0.30;100.00
13348;BME280;6743;49.934;9.138;2023-02-10T10:13:01;102738.00;;;-0.16;100.00
13348;BME280;6743;49.934;9.138;2023-02-10T10:15:38;102742.22;;;-0.12;100.00
13348;BME280;6743;49.934;9.138;2023-02-10T10:18:15;102729.97;;;-0.08;100.00
13348;BME280;6743;49.934;9.138;2023-02-10T10:20:51;102710.22;;;-0.18;100.00
13348;BME280;6743;49.934;9.138;2023-02-10T10:23:33;102741.09;;;0.00;100.00
13348;BME280;6743;49.934;9.138;2023-02-10T10:26:17;102738.37;;;0.05;100.00
13348;BME280;6743;49.934;9.138;2023-02-10T10:28:59;102735.59;;;0.12;100.00
13348;BME280;6743;49.934;9.138;2023-02-10T10:31:29;102740.66;;;0.18;100.00
13348;BME280;6743;49.934;9.138;2023-02-10T10:34:00;102733.59;;;0.22;100.00
13348;BME280;6743;49.934;9.138;2023-02-10T10:36:31;102744.72;;;0.28;100.00
13348;BME280;6743;49.934;9.138;2023-02-10T10:39:01;102728.25;;;0.26;100.00
13348;BME280;6743;49.934;9.138;2023-02-10T10:41:30;102740.91;;;0.42;100.00
13348;BME280;6743;49.934;9.138;2023-02-10T10:43:58;102736.50;;;0.44;100.00
13348;BME280;6743;49.934;9.138;2023-02-10T10:46:27;102721.78;;;0.41;100.00
13348;BME280;6743;49.934;9.138;2023-02-10T10:48:54;102732.78;;;0.54;100.00
13348;BME280;6743;49.934;9.138;2023-02-10T10:51:20;102734.41;;;0.58;100.00
13348;BME280;6743;49.934;9.138;2023-02-10T10:53:48;102728.25;;;0.60;100.00
13348;BME280;6743;49.934;9.138;2023-02-10T10:56:25;102729.88;;;0.64;100.00
13348;BME280;6743;49.934;9.138;2023-02-10T10:58:55;102721.97;;;0.67;100.00
13348;BME280;6743;49.934;9.138;2023-02-10T11:01:32;102727.84;;;0.75;100.00
13348;BME280;6743;49.934;9.138;2023-02-10T11:04:06;102732.06;;;0.79;100.00
13348;BME280;6743;49.934;9.138;2023-02-10T11:06:34;102729.31;;;0.84;100.00
13348;BME280;6743;49.934;9.138;2023-02-10T11:09:05;102727.50;;;0.88;100.00
13348;BME280;6743;49.934;9.138;2023-02-10T11:11:33;102719.50;;;0.92;100.00
13348;BME280;6743;49.934;9.138;2023-02-10T11:14:00;102716.78;;;0.97;100.00
13348;BME280;6743;49.934;9.138;2023-02-10T11:16:27;102722.75;;;1.02;100.00
13348;BME280;6743;49.934;9.138;2023-02-10T11:18:54;102711.28;;;1.06;100.00
13348;BME280;6743;49.934;9.138;2023-02-10T11:21:31;102711.09;;;1.12;100.00
13348;BME280;6743;49.934;9.138;2023-02-10T11:23:58;102704.87;;;1.17;100.00
13348;BME280;6743;49.934;9.138;2023-02-10T11:26:25;102705.53;;;1.24;100.00
13348;BME280;6743;49.934;9.138;2023-02-10T11:28:53;102706.12;;;1.32;100.00
13348;BME280;6743;49.934;9.138;2023-02-10T11:31:27;102702.50;;;1.38;100.00
13348;BME280;6743;49.934;9.138;2023-02-10T11:33:56;102702.25;;;1.45;100.00
13348;BME280;6743;49.934;9.138;2023-02-10T11:36:30;102701.22;;;1.51;100.00
13348;BME280;6743;49.934;9.138;2023-02-10T11:39:00;102696.72;;;1.56;100.00
13348;BME280;6743;49.934;9.138;2023-02-10T11:41:29;102679.44;;;1.50;100.00
13348;BME280;6743;49.934;9.138;2023-02-10T11:43:56;102691.97;;;1.67;100.00
13348;BME280;6743;49.934;9.138;2023-02-10T11:46:24;102683.09;;;1.73;100.00
13348;BME280;6743;49.934;9.138;2023-02-10T11:48:55;102686.31;;;1.81;100.00
13348;BME280;6743;49.934;9.138;2023-02-10T11:51:22;102674.69;;;1.89;100.00
13348;BME280;6743;49.934;9.138;2023-02-10T11:53:49;102671.75;;;2.00;100.00
13348;BME280;6743;49.934;9.138;2023-02-10T11:56:20;102662.91;;;2.03;100.00
13348;BME280;6743;49.934;9.138;2023-02-10T11:59:25;102670.28;;;2.16;100.00
13348;BME280;6743;49.934;9.138;2023-02-10T12:01:56;102666.59;;;2.22;100.00
13348;BME280;6743;49.934;9.138;2023-02-10T12:04:39;102659.38;;;2.28;100.00
13348;BME280;6743;49.934;9.138;2023-02-10T12:07:18;102662.59;;;2.36;100.00
13348;BME280;6743;49.934;9.138;2023-02-10T12:09:49;102668.47;;;2.43;100.00
13348;BME280;6743;49.934;9.138;2023-02-10T12:12:29;102659.66;;;2.46;100.00
13348;BME280;6743;49.934;9.138;2023-02-10T12:15:07;102655.97;;;2.51;100.00
13348;BME280;6743;49.934;9.138;2023-02-10T12:17:42;102641.16;;;2.50;100.00
13348;BME280;6743;49.934;9.138;2023-02-10T12:20:19;102657.00;;;2.70;100.00
13348;BME280;6743;49.934;9.138;2023-02-10T12:23:10;102667.31;;;2.76;100.00
13348;BME280;6743;49.934;9.138;2023-02-10T12:25:46;102660.91;;;2.84;100.00
13348;BME280;6743;49.934;9.138;2023-02-10T12:28:21;102647.06;;;2.80;100.00
13348;BME280;6743;49.934;9.138;2023-02-10T12:30:56;102660.56;;;2.93;100.00
13348;BME280;6743;49.934;9.138;2023-02-10T12:33:34;102661.38;;;2.95;100.00
13348;BME280;6743;49.934;9.138;2023-02-10T12:36:13;102652.59;;;2.96;100.00
13348;BME280;6743;49.934;9.138;2023-02-10T12:38:55;102659.47;;;2.98;100.00
13348;BME280;6743;49.934;9.138;2023-02-10T12:41:28;102659.44;;;3.00;100.00
13348;BME280;6743;49.934;9.138;2023-02-10T12:44:08;102649.75;;;3.02;100.00
13348;BME280;6743;49.934;9.138;2023-02-10T12:46:45;102656.63;;;3.04;100.00
13348;BME280;6743;49.934;9.138;2023-02-10T12:49:25;102645.22;;;3.05;100.00
13348;BME280;6743;49.934;9.138;2023-02-10T12:52:00;102646.87;;;3.08;100.00
13348;BME280;6743;49.934;9.138;2023-02-10T12:54:32;102642.44;;;3.10;100.00
13348;BME280;6743;49.934;9.138;2023-02-10T12:57:03;102644.94;;;3.13;100.00
13348;BME280;6743;49.934;9.138;2023-02-10T12:59:35;102653.50;;;3.18;100.00
13348;BME280;6743;49.934;9.138;2023-02-10T13:02:08;102651.59;;;3.22;100.00
13348;BME280;6743;49.934;9.138;2023-02-10T13:04:39;102655.81;;;3.26;100.00
13348;BME280;6743;49.934;9.138;2023-02-10T13:07:16;102633.34;;;3.18;100.00
13348;BME280;6743;49.934;9.138;2023-02-10T13:09:50;102653.03;;;3.30;100.00
13348;BME280;6743;49.934;9.138;2023-02-10T13:12:21;102645.00;;;3.33;100.00